Terminal Aerodrome Forecast
Issued by NWS Chicago, IL

Home | Current Version | Previous Version | Graphics & Text | Print | Product List | Glossary On
Versions: 1 2 3 4 5 6 7 8 9 10 11 12 13 14 15 16 17 18 19 20 21 22 23 24 25
000
FTUS43 KLOT 201128
TAFRFD
TAF
KRFD 201128Z 2012/2112 12008KT P6SM SCT020 OVC060
     FM201400 26015G25KT P6SM BKN020 OVC050
     FM202100 28017G27KT P6SM BKN025
     FM210400 29011KT P6SM BKN050
     FM210800 31010KT P6SM BKN035=

USA.gov is the U.S. government's official web portal to all federal, state and local government web resources and services.